createdAt,value
2024-02-27T00:01:51.429Z,99887.69
2024-02-27T00:04:53.819Z,99884.72
2024-02-27T00:07:55.961Z,99889.75
2024-02-27T00:10:58.383Z,99889.00
2024-02-27T00:14:00.500Z,99896.00
2024-02-27T00:17:02.959Z,99898.50
2024-02-27T00:20:06.271Z,99905.41
2024-02-27T00:23:08.825Z,99897.59
2024-02-27T00:26:10.938Z,99899.91
2024-02-27T00:29:13.413Z,99902.09
2024-02-27T00:32:15.801Z,99901.75
2024-02-27T00:35:18.206Z,99895.78
2024-02-27T00:38:20.320Z,99902.09
2024-02-27T00:41:22.937Z,99893.47
2024-02-27T00:44:25.166Z,99880.41
2024-02-27T00:47:27.607Z,99883.06
2024-02-27T00:50:30.804Z,99888.66
2024-02-27T00:53:33.192Z,99886.59
2024-02-27T00:56:35.293Z,99880.63
2024-02-27T00:59:37.707Z,99882.94
2024-02-27T01:02:41.048Z,99880.63
2024-02-27T01:05:43.565Z,99888.44
2024-02-27T01:08:45.662Z,99876.50
2024-02-27T01:11:48.076Z,99872.84
2024-02-27T01:14:50.221Z,99882.59
2024-02-27T01:17:52.797Z,99881.09
2024-02-27T01:20:55.014Z,99874.66
2024-02-27T01:23:57.577Z,99887.16
2024-02-27T01:27:00.187Z,99882.25
2024-02-27T01:30:02.841Z,99888.44
2024-02-27T01:33:05.263Z,99892.78
2024-02-27T01:36:07.953Z,99901.72
2024-02-27T01:39:10.200Z,99893.94
2024-02-27T01:42:16.114Z,99890.69
2024-02-27T01:45:24.608Z,99894.75
2024-02-27T01:48:27.161Z,99885.44
2024-02-27T01:51:30.882Z,99895.53
2024-02-27T01:54:33.838Z,99877.53
2024-02-27T01:57:36.271Z,99898.09
2024-02-27T02:00:38.810Z,99882.94
2024-02-27T02:03:41.879Z,99890.28
2024-02-27T02:06:44.340Z,99891.09
2024-02-27T02:09:49.781Z,99891.66
2024-02-27T02:12:51.976Z,99890.50
2024-02-27T02:15:54.487Z,99896.00
2024-02-27T02:18:57.757Z,99893.00
2024-02-27T02:22:00.295Z,99892.56
2024-02-27T02:25:02.844Z,99888.19
2024-02-27T02:28:05.452Z,99888.91
2024-02-27T02:31:07.508Z,99895.69
2024-02-27T02:34:10.206Z,99885.56
2024-02-27T02:37:12.465Z,99900.94
2024-02-27T02:40:15.949Z,99902.66
2024-02-27T02:43:17.990Z,99902.66
2024-02-27T02:46:20.323Z,99903.00
2024-02-27T02:49:22.891Z,99907.25
2024-02-27T02:52:25.597Z,99915.97
2024-02-27T02:55:27.704Z,99914.25
2024-02-27T02:58:30.316Z,99912.09
2024-02-27T03:01:32.695Z,99916.31
2024-02-27T03:04:35.328Z,99914.34
2024-02-27T03:07:37.525Z,99920.53
2024-02-27T03:10:39.893Z,99926.06
2024-02-27T03:13:43.468Z,99930.66
2024-02-27T03:16:46.998Z,99929.38
2024-02-27T03:19:49.360Z,99932.94
2024-02-27T03:22:51.793Z,99933.28
2024-02-27T03:25:53.918Z,99938.56
2024-02-27T03:28:56.442Z,99935.13
2024-02-27T03:31:58.713Z,99938.69
2024-02-27T03:35:01.285Z,99938.47
2024-02-27T03:38:03.763Z,99934.78
2024-02-27T03:41:06.181Z,99940.63
2024-02-27T03:44:08.279Z,99937.53
2024-02-27T03:47:10.651Z,99940.72
2024-02-27T03:50:12.740Z,99942.34
2024-02-27T03:53:15.118Z,99941.09
2024-02-27T03:56:17.231Z,99947.72
2024-02-27T03:59:19.580Z,99952.41
2024-02-27T04:02:21.675Z,99948.66
2024-02-27T04:05:24.261Z,99950.16
2024-02-27T04:08:26.538Z,99949.34
2024-02-27T04:11:29.766Z,99948.41
2024-02-27T04:14:31.865Z,99957.59
2024-02-27T04:17:34.268Z,99963.44
2024-02-27T04:20:36.387Z,99961.84
2024-02-27T04:23:39.203Z,99965.72
2024-02-27T04:26:41.293Z,99966.41
2024-02-27T04:29:43.728Z,99971.09
2024-02-27T04:32:45.877Z,99970.31
2024-02-27T04:35:48.309Z,99970.31
2024-02-27T04:38:50.354Z,99963.19
2024-02-27T04:41:52.699Z,99969.84
2024-02-27T04:44:54.805Z,99977.63
2024-02-27T04:48:01.381Z,99979.47
2024-02-27T04:51:03.708Z,99982.56
2024-02-27T04:54:06.211Z,99988.88
2024-02-27T04:57:08.944Z,99987.91
2024-02-27T05:00:11.761Z,99985.66
2024-02-27T05:03:13.902Z,99989.09
2024-02-27T05:06:16.282Z,99990.88
2024-02-27T05:09:18.513Z,99987.47
2024-02-27T05:12:21.031Z,99996.41
2024-02-27T05:15:23.396Z,100007.63
2024-02-27T05:18:25.896Z,100010.91
2024-02-27T05:21:29.285Z,100007.56
2024-02-27T05:24:31.819Z,100013.06
2024-02-27T05:27:36.221Z,100015.03
2024-02-27T05:30:38.734Z,100026.34
2024-02-27T05:33:41.078Z,100018.44
2024-02-27T05:36:43.964Z,100027.97
2024-02-27T05:39:46.137Z,100024.75
2024-02-27T05:42:48.648Z,100026.34
2024-02-27T05:45:50.817Z,100039.88
2024-02-27T05:48:53.289Z,100042.91
2024-02-27T05:51:55.412Z,100044.88
2024-02-27T05:54:58.459Z,100052.44
2024-02-27T05:58:02.157Z,100049.69
2024-02-27T06:01:04.908Z,100052.91
2024-02-27T06:04:07.498Z,100053.03
2024-02-27T06:07:10.331Z,100061.75
2024-02-27T06:10:12.812Z,100059.94
2024-02-27T06:13:15.076Z,100066.06
2024-02-27T06:16:18.044Z,100065.25
2024-02-27T06:19:20.979Z,100059.06
2024-02-27T06:22:25.099Z,100073.63
2024-02-27T06:25:27.462Z,100081.69
2024-02-27T06:28:29.950Z,100079.59
2024-02-27T06:31:32.397Z,100087.28
2024-02-27T06:34:36.058Z,100088.00
2024-02-27T06:37:38.851Z,100090.75
2024-02-27T06:40:44.256Z,100088.31
2024-02-27T06:43:46.367Z,100088.44
2024-02-27T06:46:48.753Z,100106.56
2024-02-27T06:49:51.949Z,100104.28
2024-02-27T06:52:55.894Z,100113.81
2024-02-27T06:55:58.009Z,100113.47
2024-02-27T06:59:00.418Z,100120.16
2024-02-27T07:02:03.238Z,100120.97
2024-02-27T07:05:06.002Z,100122.47
2024-02-27T07:08:10.868Z,100122.75
2024-02-27T07:11:13.243Z,100127.81
2024-02-27T07:14:15.412Z,100129.56
2024-02-27T07:17:19.746Z,100134.94
2024-02-27T07:20:21.986Z,100140.59
2024-02-27T07:23:24.661Z,100130.62
2024-02-27T07:26:26.795Z,100133.88
2024-02-27T07:29:29.618Z,100141.47
2024-02-27T07:32:31.773Z,100144.50
2024-02-27T07:35:34.365Z,100142.31
2024-02-27T07:38:36.401Z,100149.75
2024-02-27T07:41:42.077Z,100153.00
2024-02-27T07:44:44.166Z,100148.84
2024-02-27T07:47:46.645Z,100149.31
2024-02-27T07:50:48.847Z,100150.31
2024-02-27T07:53:51.204Z,100152.25
2024-02-27T07:56:53.331Z,100150.69
2024-02-27T07:59:55.758Z,100153.19
2024-02-27T08:02:57.898Z,100151.16
2024-02-27T08:06:00.488Z,100150.72
2024-02-27T08:09:02.884Z,100155.69
2024-02-27T08:12:05.532Z,100156.38
2024-02-27T08:15:07.778Z,100158.47
2024-02-27T08:18:10.352Z,100152.56
2024-02-27T08:21:12.520Z,100148.84
2024-02-27T08:24:14.989Z,100158.13
2024-02-27T08:27:17.143Z,100154.63
2024-02-27T08:30:19.706Z,100165.41
2024-02-27T08:33:22.163Z,100161.50
2024-02-27T08:36:28.452Z,100159.53
2024-02-27T08:39:30.774Z,100156.88
2024-02-27T08:42:34.274Z,100150.88
2024-02-27T08:45:38.499Z,100143.50
2024-02-27T08:48:41.128Z,100137.41
2024-02-27T08:51:43.675Z,100142.81
2024-02-27T08:54:46.593Z,100150.03
2024-02-27T08:57:48.709Z,100159.25
2024-02-27T09:00:51.175Z,100153.84
2024-02-27T09:03:53.446Z,100152.94
2024-02-27T09:06:56.029Z,100158.34
2024-02-27T09:09:58.182Z,100166.00
2024-02-27T09:13:00.597Z,100170.69
2024-02-27T09:16:02.706Z,100177.13
2024-02-27T09:19:05.446Z,100171.12
2024-02-27T09:22:07.672Z,100179.47
2024-02-27T09:25:10.150Z,100185.91
2024-02-27T09:28:14.790Z,100189.84
2024-02-27T09:31:23.941Z,100185.87
2024-02-27T09:34:33.453Z,100185.66
2024-02-27T09:37:37.601Z,100179.47
2024-02-27T09:40:39.702Z,100181.88
2024-02-27T09:43:48.433Z,100181.91
2024-02-27T09:46:51.634Z,100181.09
2024-02-27T09:49:54.764Z,100175.50
2024-02-27T09:52:57.389Z,100180.31
2024-02-27T09:55:59.859Z,100180.34
2024-02-27T09:59:04.087Z,100175.03
2024-02-27T10:02:13.389Z,100173.81
2024-02-27T10:05:20.126Z,100178.72
2024-02-27T10:08:24.693Z,100179.47
2024-02-27T10:11:27.641Z,100185.06
2024-02-27T10:14:34.269Z,100182.63
2024-02-27T10:17:38.442Z,100185.72
2024-02-27T10:20:46.415Z,100192.44
2024-02-27T10:23:48.866Z,100180.66
2024-02-27T10:26:54.605Z,100198.03
2024-02-27T10:29:56.998Z,100200.34
2024-02-27T10:33:03.903Z,100198.31
2024-02-27T10:36:09.629Z,100198.00
2024-02-27T10:39:11.844Z,100200.88
2024-02-27T10:42:14.483Z,100200.00
2024-02-27T10:45:17.014Z,100198.72
2024-02-27T10:48:26.569Z,100185.75
2024-02-27T10:51:32.623Z,100192.03
2024-02-27T10:54:35.135Z,100184.84
2024-02-27T10:57:37.620Z,100182.53
2024-02-27T11:00:40.548Z,100178.44
2024-02-27T11:03:43.334Z,100175.97
2024-02-27T11:06:46.988Z,100175.50
2024-02-27T11:09:50.931Z,100181.28
2024-02-27T11:12:56.970Z,100171.16
2024-02-27T11:16:01.671Z,100171.66
2024-02-27T11:19:07.522Z,100176.37
2024-02-27T11:22:10.902Z,100175.81
2024-02-27T11:25:13.760Z,100172.09
2024-02-27T11:28:16.608Z,100176.59
2024-02-27T11:31:19.933Z,100172.13
2024-02-27T11:34:25.476Z,100178.91
2024-02-27T11:37:28.082Z,100173.53
2024-02-27T11:40:47.226Z,100169.25
2024-02-27T11:43:50.297Z,100164.69
2024-02-27T11:46:55.884Z,100163.47
2024-02-27T11:49:58.231Z,100158.47
2024-02-27T11:53:00.362Z,100155.47
2024-02-27T11:56:02.776Z,100148.16
2024-02-27T11:59:04.954Z,100152.91
2024-02-27T12:02:07.670Z,100153.63
2024-02-27T12:05:10.118Z,100161.75
2024-02-27T12:08:12.285Z,100156.09
2024-02-27T12:11:18.647Z,100151.38
2024-02-27T12:14:21.289Z,100149.97
2024-02-27T12:17:25.334Z,100148.31
2024-02-27T12:20:27.470Z,100148.78
2024-02-27T12:23:33.316Z,100145.37
2024-02-27T12:26:35.460Z,100142.13
2024-02-27T12:29:37.909Z,100133.75
2024-02-27T12:32:43.878Z,100136.47
2024-02-27T12:35:46.621Z,100132.37
2024-02-27T12:38:52.178Z,100140.28
2024-02-27T12:41:54.703Z,100125.41
2024-02-27T12:44:56.818Z,100137.97
2024-02-27T12:47:59.689Z,100137.91
2024-02-27T12:51:02.424Z,100134.78
2024-02-27T12:54:06.802Z,100136.44
2024-02-27T12:57:09.218Z,100124.13
2024-02-27T13:00:13.177Z,100136.13
2024-02-27T13:03:15.436Z,100143.50
2024-02-27T13:06:18.105Z,100136.28
2024-02-27T13:09:20.412Z,100136.28
2024-02-27T13:12:24.133Z,100131.94
2024-02-27T13:15:26.335Z,100139.94
2024-02-27T13:18:29.493Z,100137.97
2024-02-27T13:21:31.745Z,100126.28
2024-02-27T13:24:37.001Z,100124.56
2024-02-27T13:27:39.160Z,100126.28
2024-02-27T13:30:41.803Z,100122.41
2024-02-27T13:33:44.277Z,100121.66
2024-02-27T13:36:48.683Z,100124.44
2024-02-27T13:39:50.945Z,100124.09
2024-02-27T13:42:53.416Z,100123.62
2024-02-27T13:45:58.915Z,100123.94
2024-02-27T13:49:01.664Z,100120.69
2024-02-27T13:52:04.792Z,100111.91
2024-02-27T13:55:07.859Z,100105.47
2024-02-27T13:58:10.053Z,100109.13
2024-02-27T14:01:12.677Z,100105.53
2024-02-27T14:04:15.348Z,100112.28
2024-02-27T14:07:17.571Z,100118.13
2024-02-27T14:10:20.054Z,100117.53
2024-02-27T14:13:23.022Z,100118.31
2024-02-27T14:16:25.490Z,100112.63
2024-02-27T14:19:27.675Z,100114.47
2024-02-27T14:22:30.200Z,100101.56
2024-02-27T14:25:35.422Z,100103.78
2024-02-27T14:28:39.545Z,100101.25
2024-02-27T14:31:41.643Z,100101.97
2024-02-27T14:34:44.080Z,100113.72
2024-02-27T14:37:46.322Z,100110.63
2024-02-27T14:40:50.626Z,100110.03
2024-02-27T14:43:54.654Z,100102.31
2024-02-27T14:46:57.058Z,100102.31
2024-02-27T14:49:59.220Z,100111.00
2024-02-27T14:53:01.652Z,100105.78
2024-02-27T14:56:03.805Z,100111.81
2024-02-27T14:59:06.279Z,100117.97
2024-02-27T15:02:08.948Z,100108.31
2024-02-27T15:05:11.435Z,100115.37
2024-02-27T15:08:13.525Z,100113.78
2024-02-27T15:11:15.969Z,100114.59
2024-02-27T15:14:18.232Z,100115.22
2024-02-27T15:17:20.602Z,100112.38
2024-02-27T15:20:25.715Z,100114.00
2024-02-27T15:23:28.192Z,100108.03
2024-02-27T15:26:30.262Z,100115.06
2024-02-27T15:29:32.709Z,100113.47
2024-02-27T15:32:34.830Z,100111.81
2024-02-27T15:35:39.189Z,100116.56
2024-02-27T15:38:42.232Z,100112.50
2024-02-27T15:41:44.734Z,100115.72
2024-02-27T15:44:46.967Z,100113.28
2024-02-27T15:47:49.574Z,100115.97
2024-02-27T15:50:52.292Z,100110.38
2024-02-27T15:53:54.654Z,100111.91
2024-02-27T15:56:56.845Z,100113.78
2024-02-27T15:59:59.344Z,100116.88
2024-02-27T16:03:07.617Z,100117.63
2024-02-27T16:06:12.211Z,100118.34
2024-02-27T16:09:14.359Z,100107.56
2024-02-27T16:12:21.790Z,100119.75
2024-02-27T16:15:28.762Z,100116.06
2024-02-27T16:18:31.241Z,100126.34
2024-02-27T16:21:43.787Z,100134.63
2024-02-27T16:24:46.480Z,100123.81
2024-02-27T16:27:48.756Z,100124.94
2024-02-27T16:30:51.167Z,100120.91
2024-02-27T16:33:53.404Z,100131.09
2024-02-27T16:36:58.853Z,100123.09
2024-02-27T16:40:01.647Z,100135.66
2024-02-27T16:43:04.599Z,100138.72
2024-02-27T16:46:09.428Z,100138.69
2024-02-27T16:49:12.096Z,100137.44
2024-02-27T16:52:14.464Z,100139.31
2024-02-27T16:55:16.942Z,100132.13
2024-02-27T16:58:19.451Z,100141.50
2024-02-27T17:01:21.876Z,100145.37
2024-02-27T17:04:24.080Z,100144.88
2024-02-27T17:07:28.040Z,100145.97
2024-02-27T17:10:30.180Z,100157.78
2024-02-27T17:13:32.693Z,100156.81
2024-02-27T17:16:34.868Z,100159.06
2024-02-27T17:19:37.517Z,100163.38
2024-02-27T17:22:39.788Z,100173.16
2024-02-27T17:25:42.659Z,100172.69
2024-02-27T17:28:44.783Z,100166.72
2024-02-27T17:31:47.219Z,100172.16
2024-02-27T17:34:50.115Z,100179.94
2024-02-27T17:37:52.685Z,100179.87
2024-02-27T17:40:54.828Z,100168.28
2024-02-27T17:43:57.180Z,100180.00
2024-02-27T17:46:59.385Z,100185.81
2024-02-27T17:50:03.640Z,100190.53
2024-02-27T17:53:06.679Z,100178.56
2024-02-27T17:56:11.938Z,100181.56
2024-02-27T17:59:14.015Z,100191.78
2024-02-27T18:02:16.632Z,100185.31
2024-02-27T18:05:19.154Z,100186.03
2024-02-27T18:08:21.322Z,100189.09
2024-02-27T18:11:23.890Z,100188.66
2024-02-27T18:14:26.112Z,100203.28
2024-02-27T18:17:28.537Z,100197.75
2024-02-27T18:20:30.908Z,100198.81
2024-02-27T18:23:33.400Z,100191.69
2024-02-27T18:26:35.560Z,100197.56
2024-02-27T18:29:39.609Z,100196.78
2024-02-27T18:32:41.939Z,100193.53
2024-02-27T18:35:44.474Z,100191.97
2024-02-27T18:38:46.717Z,100199.06
2024-02-27T18:41:49.591Z,100197.50
2024-02-27T18:44:51.687Z,100204.16
2024-02-27T18:47:54.206Z,100196.59
2024-02-27T18:50:56.370Z,100200.53
2024-02-27T18:53:58.774Z,100201.69
2024-02-27T18:57:00.908Z,100210.41
2024-02-27T19:00:03.964Z,100205.25
2024-02-27T19:03:06.157Z,100216.59
2024-02-27T19:06:08.593Z,100222.44
2024-02-27T19:09:10.995Z,100222.44
2024-02-27T19:12:13.823Z,100223.97
2024-02-27T19:15:16.095Z,100235.84
2024-02-27T19:18:19.269Z,100241.81
2024-02-27T19:21:21.689Z,100237.00
2024-02-27T19:24:24.285Z,100242.06
2024-02-27T19:27:26.544Z,100236.09
2024-02-27T19:30:29.110Z,100239.75
2024-02-27T19:33:31.246Z,100240.94
2024-02-27T19:36:34.217Z,100237.00
2024-02-27T19:39:37.412Z,100237.81
2024-02-27T19:42:45.365Z,100248.88
2024-02-27T19:45:50.118Z,100257.87
2024-02-27T19:48:52.698Z,100252.44
2024-02-27T19:51:56.352Z,100257.06
2024-02-27T19:54:58.775Z,100259.38
2024-02-27T19:58:00.948Z,100261.00
2024-02-27T20:01:03.477Z,100261.69
2024-02-27T20:04:06.103Z,100260.09
2024-02-27T20:07:08.425Z,100258.38
2024-02-27T20:10:12.557Z,100260.72
2024-02-27T20:13:20.132Z,100266.31
2024-02-27T20:16:23.076Z,100258.38
2024-02-27T20:19:25.423Z,100265.97
2024-02-27T20:22:29.950Z,100264.72
2024-02-27T20:25:32.231Z,100271.03
2024-02-27T20:28:35.182Z,100269.09
2024-02-27T20:31:37.308Z,100272.22
2024-02-27T20:34:39.744Z,100273.91
2024-02-27T20:37:42.797Z,100274.28
2024-02-27T20:40:47.091Z,100269.53
2024-02-27T20:44:01.057Z,100273.47
2024-02-27T20:47:03.626Z,100279.81
2024-02-27T20:50:06.008Z,100277.37
2024-02-27T20:53:08.406Z,100274.63
2024-02-27T20:56:10.622Z,100276.50
2024-02-27T20:59:13.055Z,100277.63
2024-02-27T21:02:15.426Z,100278.06
2024-02-27T21:05:18.354Z,100284.31
2024-02-27T21:08:20.506Z,100288.13
2024-02-27T21:11:22.937Z,100286.88
2024-02-27T21:14:25.095Z,100289.66
2024-02-27T21:17:28.243Z,100285.63
2024-02-27T21:20:30.617Z,100287.13
2024-02-27T21:23:35.836Z,100286.91
2024-02-27T21:26:37.931Z,100282.81
2024-02-27T21:29:40.338Z,100285.81
2024-02-27T21:32:42.523Z,100286.53
2024-02-27T21:35:45.022Z,100293.91
2024-02-27T21:38:47.478Z,100293.69
2024-02-27T21:41:49.908Z,100304.28
2024-02-27T21:44:52.738Z,100304.28
2024-02-27T21:47:55.987Z,100305.88
2024-02-27T21:50:58.152Z,100306.59
2024-02-27T21:54:00.599Z,100310.50
2024-02-27T21:57:02.971Z,100305.31
2024-02-27T22:00:08.897Z,100300.16
2024-02-27T22:03:12.910Z,100314.87
2024-02-27T22:06:15.120Z,100310.50
2024-02-27T22:09:17.586Z,100311.78
2024-02-27T22:12:19.844Z,100313.72
2024-02-27T22:15:22.268Z,100309.00
2024-02-27T22:18:24.471Z,100308.19
2024-02-27T22:21:27.261Z,100314.44
2024-02-27T22:24:30.349Z,100317.50
2024-02-27T22:27:32.869Z,100320.62
2024-02-27T22:30:35.090Z,100324.53
2024-02-27T22:33:37.686Z,100317.88
2024-02-27T22:36:39.925Z,100328.69
2024-02-27T22:39:42.460Z,100324.78
2024-02-27T22:42:44.716Z,100319.94
2024-02-27T22:45:49.808Z,100325.81
2024-02-27T22:48:52.713Z,100325.03
2024-02-27T22:51:55.282Z,100323.72
2024-02-27T22:54:57.434Z,100334.78
2024-02-27T22:57:59.815Z,100334.09
2024-02-27T23:01:03.893Z,100334.00
2024-02-27T23:04:06.672Z,100332.34
2024-02-27T23:07:08.851Z,100350.06
2024-02-27T23:10:13.352Z,100332.34
2024-02-27T23:13:15.581Z,100334.66
2024-02-27T23:16:18.034Z,100336.25
2024-02-27T23:19:20.159Z,100339.72
2024-02-27T23:22:22.558Z,100334.00
2024-02-27T23:25:24.606Z,100337.22
2024-02-27T23:28:27.265Z,100335.59
2024-02-27T23:31:29.382Z,100345.06
2024-02-27T23:34:31.867Z,100342.37
2024-02-27T23:37:33.963Z,100342.59
2024-02-27T23:40:36.360Z,100336.94
2024-02-27T23:43:38.391Z,100333.72
2024-02-27T23:46:43.674Z,100337.53
2024-02-27T23:49:45.839Z,100327.31
2024-02-27T23:52:48.217Z,100340.19
2024-02-27T23:55:50.277Z,100332.34
2024-02-27T23:58:53.185Z,100345.25
